Amaicha del Valle, Argentina
Current Conditions -  °F | °C
As of 9:00 PM on Sunday 21 Dec 2014 (Local Time) from SANT Reporting Station
Overcast Overcast  
Wind Chill: 18°   Ceiling: 3500
Heat Index: 18°   Visibility: 6mi
Dew Point: 13°   Wind: 5mph
Humidity: 73%   Direction: 180°S
Pressure: 29.97"   Gusts: NA
Location:  26.73°S, 65.8°W
Report Text: SANT 220000Z 18004KT 9999 BKN035 OVC10018/13 Q1015
Loading
Personal Weather Stations






























Interactive Weather Map New forecast layout! Learn more

10-Day Weather Forecast

Advertisements
Track Severe Weather on mobile